CheckWX is a tool to help pilots better visualize weather data.  It is not intended as a substitute for an official pre-flight weather briefing.

01:53:51 UTC

MMRX TAF
General Lucio Blanco International Airport
Reynosa, Mexico
TAF AMD MMRX 190004Z 1900/1918 26005KT 5SM HZ OVC030 TEMPO 1900/1903 3SM RA BKN020 FM190600 03005KT P6SM OVC060 TEMPO 1914/1918 4SM RA BKN020

Mar-19@
00:00 UTC

Mar-19 @ 00:00 UTC

Mar-19@
06:00 UTC

Mar-19 @ 06:00 UTC

TAF AMD MMRX 190004Z 1900/1918 26005KT 5SM HZ OVC030
Wind
  • 260° at 5 KTS
Conditions
Haze
Cloud Levels
  • Overcast at 3,000' AGL

Mar-19@
00:00 UTC

Mar-19 @ 00:00 UTC

Mar-19@
03:00 UTC

Mar-19 @ 03:00 UTC

TEMPO 1900/1903 3SM RA BKN020

Temporary

Temporary Changes expected for less than half the time period

Conditions
Rain
Cloud Levels
  • Broken at 2,000' AGL

Mar-19@
06:00 UTC

Mar-19 @ 06:00 UTC

Mar-19@
18:00 UTC

Mar-19 @ 18:00 UTC

FM190600 03005KT P6SM OVC060

From

From Standard forecast or significant change

Wind
  • 030° at 5 KTS
Cloud Levels
  • Overcast at 6,000' AGL

Mar-19@
14:00 UTC

Mar-19 @ 14:00 UTC

Mar-19@
18:00 UTC

Mar-19 @ 18:00 UTC

TEMPO 1914/1918 4SM RA BKN020

Temporary

Temporary Changes expected for less than half the time period

Conditions
Rain
Cloud Levels
  • Broken at 2,000' AGL